Time,TemperatureF,DewpointF,PressureIn,WindDirection,WindDirectionDegrees,WindSpeedMPH,WindSpeedGustMPH,Humidity,HourlyPrecipIn,Conditions,Clouds,dailyrainin,SoftwareType,DateUTC
2013-06-15 00:02:00,64.5,58.2,29.85,NNE,32,0.0,0.0,80,0.00,,CLR,0.00,VWS V14.01,2013-06-15 04:02:00,
2013-06-15 00:07:00,63.9,57.6,29.85,NNE,32,0.0,0.0,80,0.00,,CLR,0.00,VWS V14.01,2013-06-15 04:07:00,
2013-06-15 00:13:00,63.5,57.6,29.85,NNE,32,0.0,0.0,81,0.00,,CLR,0.00,VWS V14.01,2013-06-15 04:13:00,
2013-06-15 00:17:00,63.4,57.8,29.85,NNE,32,0.0,0.0,82,0.00,,CLR,0.00,VWS V14.01,2013-06-15 04:17:00,
2013-06-15 00:22:00,63.2,57.6,29.85,NNE,32,0.0,0.0,82,0.00,,CLR,0.00,VWS V14.01,2013-06-15 04:22:00,
2013-06-15 00:27:00,63.1,57.5,29.85,NNE,32,0.0,0.0,82,0.00,,CLR,0.00,VWS V14.01,2013-06-15 04:27:00,
2013-06-15 00:37:00,63.2,58.3,29.85,NNE,32,0.0,0.0,84,0.00,,CLR,0.00,VWS V14.01,2013-06-15 04:37:00,
2013-06-15 00:47:00,62.9,58.0,29.85,NNE,32,0.0,0.0,84,0.00,,CLR,0.00,VWS V14.01,2013-06-15 04:47:00,
2013-06-15 00:57:00,62.7,58.1,29.85,NNE,32,0.0,0.0,85,0.00,,CLR,0.00,VWS V14.01,2013-06-15 04:57:00,
2013-06-15 01:02:00,62.4,58.2,29.85,NNE,32,0.0,0.0,86,0.00,,CLR,0.00,VWS V14.01,2013-06-15 05:02:00,
2013-06-15 01:07:00,62.3,58.1,29.85,NNE,32,0.0,0.0,86,0.00,,CLR,0.00,VWS V14.01,2013-06-15 05:07:00,
2013-06-15 01:17:00,61.8,57.6,29.85,NNE,32,0.0,0.0,86,0.00,,CLR,0.00,VWS V14.01,2013-06-15 05:17:00,
2013-06-15 01:22:00,61.6,57.4,29.85,NNE,32,0.0,0.0,86,0.00,,CLR,0.00,VWS V14.01,2013-06-15 05:22:00,
2013-06-15 01:27:00,61.5,57.6,29.85,NNE,32,0.0,0.0,87,0.00,,CLR,0.00,VWS V14.01,2013-06-15 05:27:00,
2013-06-15 01:32:00,61.3,57.4,29.86,NNE,32,0.0,0.0,87,0.00,,CLR,0.00,VWS V14.01,2013-06-15 05:32:00,
2013-06-15 01:37:00,61.3,57.7,29.86,NNE,32,0.0,0.0,88,0.00,,CLR,0.00,VWS V14.01,2013-06-15 05:37:00,
2013-06-15 01:42:00,61.0,57.4,29.86,NNE,32,0.0,0.0,88,0.00,,CLR,0.00,VWS V14.01,2013-06-15 05:42:00,
2013-06-15 01:52:00,61.0,57.4,29.85,NNE,32,0.0,0.0,88,0.00,,CLR,0.00,VWS V14.01,2013-06-15 05:52:00,
2013-06-15 02:02:00,61.0,57.4,29.86,NNE,32,0.0,0.0,88,0.00,,CLR,0.00,VWS V14.01,2013-06-15 06:02:00,
2013-06-15 02:07:00,60.9,57.3,29.86,NNE,32,0.0,0.0,88,0.00,,CLR,0.00,VWS V14.01,2013-06-15 06:07:00,
2013-06-15 02:12:00,60.9,57.6,29.86,NNE,32,0.0,0.0,89,0.00,,CLR,0.00,VWS V14.01,2013-06-15 06:12:00,
2013-06-15 02:17:00,61.0,57.7,29.86,NNE,32,0.0,0.0,89,0.00,,CLR,0.00,VWS V14.01,2013-06-15 06:17:00,
2013-06-15 02:22:00,61.0,57.7,29.86,NNE,32,0.0,0.0,89,0.00,,CLR,0.00,VWS V14.01,2013-06-15 06:22:00,
2013-06-15 02:27:00,61.0,57.7,29.86,NNE,32,0.0,0.0,89,0.00,,CLR,0.00,VWS V14.01,2013-06-15 06:27:00,
2013-06-15 02:32:00,61.0,57.7,29.86,NNE,32,0.0,0.0,89,0.00,,CLR,0.00,VWS V14.01,2013-06-15 06:32:00,
2013-06-15 02:37:00,61.0,57.7,29.86,NNE,32,0.0,0.0,89,0.00,,CLR,0.00,VWS V14.01,2013-06-15 06:37:00,
2013-06-15 02:42:00,61.0,57.7,29.86,NNE,32,0.0,0.0,89,0.00,,CLR,0.00,VWS V14.01,2013-06-15 06:42:00,
2013-06-15 02:47:00,60.9,57.6,29.87,NNE,32,0.0,0.0,89,0.00,,CLR,0.00,VWS V14.01,2013-06-15 06:47:00,
2013-06-15 02:52:00,60.9,57.6,29.87,NNE,32,0.0,0.0,89,0.00,,CLR,0.00,VWS V14.01,2013-06-15 06:52:00,
2013-06-15 02:57:00,60.9,57.6,29.87,NNE,32,0.0,0.0,89,0.00,,CLR,0.00,VWS V14.01,2013-06-15 06:57:00,
2013-06-15 03:02:00,60.7,57.4,29.87,NNE,32,0.0,0.0,89,0.00,,CLR,0.00,VWS V14.01,2013-06-15 07:02:00,
2013-06-15 03:07:00,60.7,57.4,29.87,NNE,32,0.0,0.0,89,0.00,,CLR,0.00,VWS V14.01,2013-06-15 07:07:00,
2013-06-15 03:12:00,60.7,57.4,29.87,NNE,32,0.0,0.0,89,0.00,,CLR,0.00,VWS V14.01,2013-06-15 07:12:00,
2013-06-15 03:17:00,60.5,57.2,29.87,NNE,32,0.0,0.0,89,0.00,,CLR,0.00,VWS V14.01,2013-06-15 07:17:00,
2013-06-15 03:27:00,60.4,57.5,29.87,NNE,32,0.0,0.0,90,0.00,,CLR,0.00,VWS V14.01,2013-06-15 07:27:00,
2013-06-15 03:32:00,60.4,57.5,29.87,NNE,32,0.0,0.0,90,0.00,,CLR,0.00,VWS V14.01,2013-06-15 07:32:00,
2013-06-15 03:37:00,59.9,57.0,29.87,NNE,32,0.0,0.0,90,0.00,,CLR,0.00,VWS V14.01,2013-06-15 07:37:00,
2013-06-15 03:42:00,59.9,57.0,29.87,NNE,32,0.0,0.0,90,0.00,,CLR,0.00,VWS V14.01,2013-06-15 07:42:00,
2013-06-15 03:52:00,59.9,57.0,29.86,NNE,32,0.0,0.0,90,0.00,,CLR,0.00,VWS V14.01,2013-06-15 07:52:00,
2013-06-15 04:02:00,60.4,57.8,29.86,NNE,32,0.0,0.0,91,0.00,,CLR,0.00,VWS V14.01,2013-06-15 08:02:00,
2013-06-15 04:07:00,60.5,57.9,29.86,NNE,32,0.0,0.0,91,0.00,,CLR,0.00,VWS V14.01,2013-06-15 08:07:00,
2013-06-15 04:12:00,60.4,57.8,29.86,NNE,32,0.0,0.0,91,0.00,,CLR,0.00,VWS V14.01,2013-06-15 08:12:00,
2013-06-15 04:17:00,60.4,57.8,29.85,NNE,32,0.0,0.0,91,0.00,,CLR,0.00,VWS V14.01,2013-06-15 08:17:00,
2013-06-15 04:22:00,60.4,57.8,29.85,NNE,32,0.0,0.0,91,0.00,,CLR,0.00,VWS V14.01,2013-06-15 08:22:00,
2013-06-15 04:27:00,60.4,57.8,29.85,NNE,32,0.0,0.0,91,0.00,,CLR,0.00,VWS V14.01,2013-06-15 08:27:00,
2013-06-15 04:32:00,60.5,57.9,29.85,NNE,32,0.0,0.0,91,0.00,,CLR,0.00,VWS V14.01,2013-06-15 08:32:00,
2013-06-15 04:37:00,60.5,57.9,29.85,NNE,32,0.0,0.0,91,0.00,,CLR,0.00,VWS V14.01,2013-06-15 08:37:00,
2013-06-15 04:42:00,60.7,58.1,29.85,NNE,32,0.0,0.0,91,0.00,,CLR,0.00,VWS V14.01,2013-06-15 08:42:00,
2013-06-15 04:47:00,60.7,58.1,29.85,NNE,32,0.0,0.0,91,0.00,,CLR,0.00,VWS V14.01,2013-06-15 08:47:00,
2013-06-15 04:57:00,61.0,58.4,29.85,NNE,32,0.0,0.0,91,0.00,,CLR,0.00,VWS V14.01,2013-06-15 08:57:00,
2013-06-15 05:02:00,61.2,58.2,29.85,NNE,32,0.0,0.0,90,0.00,,CLR,0.00,VWS V14.01,2013-06-15 09:02:00,
2013-06-15 05:07:00,61.3,58.3,29.85,NNE,32,0.0,0.0,90,0.00,,CLR,0.00,VWS V14.01,2013-06-15 09:07:00,
2013-06-15 05:12:00,61.3,58.3,29.85,NNE,32,0.0,0.0,90,0.00,,CLR,0.00,VWS V14.01,2013-06-15 09:12:00,
2013-06-15 05:17:00,61.3,58.3,29.85,NNE,32,0.0,0.0,90,0.00,,CLR,0.00,VWS V14.01,2013-06-15 09:17:00,
2013-06-15 05:22:00,61.3,58.3,29.85,NNE,32,0.0,0.0,90,0.00,,CLR,0.00,VWS V14.01,2013-06-15 09:22:00,
2013-06-15 05:27:00,61.3,58.0,29.85,NNE,32,0.0,0.0,89,0.00,,CLR,0.00,VWS V14.01,2013-06-15 09:27:00,
2013-06-15 05:32:00,61.5,58.2,29.86,NNE,32,0.0,0.0,89,0.00,,CLR,0.00,VWS V14.01,2013-06-15 09:32:00,
2013-06-15 05:42:00,61.0,57.7,29.86,NNE,32,0.0,0.0,89,0.00,,CLR,0.00,VWS V14.01,2013-06-15 09:42:00,
2013-06-15 05:47:00,60.7,57.4,29.87,NNE,32,0.0,0.0,89,0.00,,CLR,0.00,VWS V14.01,2013-06-15 09:47:00,
2013-06-15 05:52:00,60.5,57.2,29.87,NNE,32,0.0,0.0,89,0.00,,CLR,0.00,VWS V14.01,2013-06-15 09:52:00,
2013-06-15 06:02:00,60.5,57.2,29.87,NNE,32,0.0,0.0,89,0.00,,CLR,0.00,VWS V14.01,2013-06-15 10:02:00,
2013-06-15 06:12:00,60.5,57.2,29.87,NNE,32,0.0,0.0,89,0.00,,CLR,0.00,VWS V14.01,2013-06-15 10:12:00,
2013-06-15 06:17:00,60.7,57.4,29.88,NNE,32,0.0,0.0,89,0.00,,CLR,0.00,VWS V14.01,2013-06-15 10:17:00,
2013-06-15 06:22:00,60.9,57.6,29.88,NNE,32,0.0,0.0,89,0.00,,FEW110,0.00,VWS V14.01,2013-06-15 10:22:00,
2013-06-15 06:32:00,61.6,58.0,29.88,NNE,32,0.0,0.0,88,0.00,,FEW110,0.00,VWS V14.01,2013-06-15 10:32:00,
2013-06-15 06:37:00,62.0,58.1,29.88,NNE,32,0.0,0.0,87,0.00,,FEW110,0.00,VWS V14.01,2013-06-15 10:37:00,
2013-06-15 06:42:00,62.4,58.2,29.88,NNE,32,0.0,0.0,86,0.00,,FEW110,0.00,VWS V14.01,2013-06-15 10:42:00,
2013-06-15 06:52:00,63.2,57.6,29.88,NNE,32,0.0,0.0,82,0.00,,FEW110,0.00,VWS V14.01,2013-06-15 10:52:00,
2013-06-15 06:57:00,63.4,57.5,29.88,NNE,32,0.0,0.0,81,0.00,,FEW110,0.00,VWS V14.01,2013-06-15 10:57:00,
2013-06-15 07:02:00,63.7,57.4,29.88,NNE,32,0.0,0.0,80,0.00,,FEW110,0.00,VWS V14.01,2013-06-15 11:02:00,
2013-06-15 07:07:00,64.0,57.0,29.88,NNE,32,0.0,0.0,78,0.00,,FEW110,0.00,VWS V14.01,2013-06-15 11:07:00,
2013-06-15 07:12:00,64.3,56.6,29.88,SE,131,0.0,0.0,76,0.00,,FEW110,0.00,VWS V14.01,2013-06-15 11:12:00,
2013-06-15 07:17:00,64.5,56.4,29.89,SE,131,0.0,0.0,75,0.00,,FEW110,0.00,VWS V14.01,2013-06-15 11:17:00,
2013-06-15 07:22:00,64.7,56.6,29.89,SE,131,0.0,0.0,75,0.00,,OVC110,0.00,VWS V14.01,2013-06-15 11:22:00,
2013-06-15 07:27:00,64.8,56.3,29.89,SE,131,0.0,0.0,74,0.00,,OVC110,0.00,VWS V14.01,2013-06-15 11:27:00,
2013-06-15 07:37:00,65.2,56.3,29.89,SE,131,0.0,0.0,73,0.00,,OVC110,0.00,VWS V14.01,2013-06-15 11:37:00,
2013-06-15 07:42:00,65.2,56.3,29.89,SE,131,0.0,0.0,73,0.00,,OVC110,0.00,VWS V14.01,2013-06-15 11:42:00,
2013-06-15 07:47:00,65.3,56.8,29.89,SE,131,0.0,0.0,74,0.00,,OVC110,0.00,VWS V14.01,2013-06-15 11:47:00,
2013-06-15 07:57:00,65.5,57.0,29.89,SE,131,0.0,0.0,74,0.00,,OVC110,0.00,VWS V14.01,2013-06-15 11:57:00,
2013-06-15 08:02:00,65.6,57.1,29.88,SE,131,0.0,0.0,74,0.00,,OVC110,0.00,VWS V14.01,2013-06-15 12:02:00,
2013-06-15 08:07:00,65.8,57.3,29.88,SE,131,0.0,0.0,74,0.00,,OVC110,0.00,VWS V14.01,2013-06-15 12:07:00,
2013-06-15 08:12:00,66.0,57.5,29.88,SE,131,0.0,0.0,74,0.00,,OVC110,0.00,VWS V14.01,2013-06-15 12:12:00,
2013-06-15 08:17:00,66.0,57.1,29.88,SE,131,0.0,0.0,73,0.00,,OVC110,0.00,VWS V14.01,2013-06-15 12:17:00,
2013-06-15 08:27:00,66.3,57.0,29.88,SE,133,0.0,0.0,72,0.00,,-RA,0.00,VWS V14.01,2013-06-15 12:27:00,
2013-06-15 08:32:00,66.4,57.1,29.88,SE,133,0.0,0.0,72,0.00,,-RA,0.00,VWS V14.01,2013-06-15 12:32:00,
2013-06-15 08:37:00,66.6,56.9,29.88,SE,133,0.0,0.0,71,0.00,,-RA,0.00,VWS V14.01,2013-06-15 12:37:00,
2013-06-15 08:42:00,67.1,57.0,29.88,SE,144,0.0,0.0,70,0.00,,-RA,0.00,VWS V14.01,2013-06-15 12:42:00,
2013-06-15 08:52:00,68.1,57.2,29.88,SSE,147,0.0,0.0,68,0.00,,-RA,0.00,VWS V14.01,2013-06-15 12:52:00,
2013-06-15 08:57:00,68.3,57.8,29.88,SSE,148,0.0,0.0,69,0.00,,-RA,0.00,VWS V14.01,2013-06-15 12:57:00,
2013-06-15 09:02:00,68.4,57.4,29.88,SSE,158,0.0,0.0,68,0.00,,-RA,0.00,VWS V14.01,2013-06-15 13:02:00,
2013-06-15 09:07:00,68.3,57.3,29.88,SSW,195,0.0,0.0,68,0.00,,-RA,0.00,VWS V14.01,2013-06-15 13:07:00,
2013-06-15 09:12:00,68.4,57.4,29.88,SSW,195,0.0,0.0,68,0.00,,-RA,0.00,VWS V14.01,2013-06-15 13:12:00,
2013-06-15 09:17:00,68.6,57.6,29.88,South,185,0.0,0.0,68,0.00,,-RA,0.00,VWS V14.01,2013-06-15 13:17:00,
2013-06-15 09:22:00,68.8,57.8,29.88,South,172,0.0,0.0,68,0.00,,FEW110,0.00,VWS V14.01,2013-06-15 13:22:00,
2013-06-15 09:27:00,68.9,57.5,29.88,SSE,158,0.0,0.0,67,0.00,,FEW110,0.00,VWS V14.01,2013-06-15 13:27:00,
2013-06-15 09:32:00,69.1,57.7,29.87,SSE,161,0.0,0.0,67,0.00,,FEW110,0.00,VWS V14.01,2013-06-15 13:32:00,
2013-06-15 09:37:00,69.3,57.9,29.87,SSE,162,0.0,0.0,67,0.00,,FEW110,0.00,VWS V14.01,2013-06-15 13:37:00,
2013-06-15 09:47:00,69.8,58.4,29.86,SSE,168,0.0,0.0,67,0.00,,FEW110,0.00,VWS V14.01,2013-06-15 13:47:00,
2013-06-15 09:52:00,70.1,58.2,29.86,SSE,168,0.0,0.0,66,0.00,,FEW110,0.00,VWS V14.01,2013-06-15 13:52:00,
2013-06-15 10:02:00,71.1,58.8,29.85,SSE,160,0.0,0.0,65,0.00,,FEW110,0.00,VWS V14.01,2013-06-15 14:02:00,
2013-06-15 10:12:00,72.1,59.7,29.85,South,176,0.0,0.0,65,0.00,,FEW110,0.00,VWS V14.01,2013-06-15 14:12:00,
2013-06-15 10:17:00,72.8,60.4,29.84,SSW,192,0.0,0.0,65,0.00,,FEW110,0.00,VWS V14.01,2013-06-15 14:17:00,
2013-06-15 10:27:00,73.2,59.4,29.84,SSE,150,0.0,0.0,62,0.00,,OVC110,0.00,VWS V14.01,2013-06-15 14:27:00,
2013-06-15 10:37:00,72.8,59.5,29.84,South,174,0.0,0.0,63,0.00,,OVC110,0.00,VWS V14.01,2013-06-15 14:37:00,
2013-06-15 10:42:00,72.8,59.5,29.84,SSE,162,0.0,0.0,63,0.00,,OVC110,0.00,VWS V14.01,2013-06-15 14:42:00,
2013-06-15 10:47:00,73.2,59.4,29.83,South,191,0.0,0.0,62,0.00,,OVC110,0.00,VWS V14.01,2013-06-15 14:47:00,
2013-06-15 10:52:00,73.7,59.9,29.83,South,175,0.0,0.0,62,0.00,,OVC110,0.00,VWS V14.01,2013-06-15 14:52:00,
2013-06-15 11:02:00,75.1,60.3,29.81,SSE,152,0.0,0.0,60,0.00,,OVC110,0.00,VWS V14.01,2013-06-15 15:02:00,
2013-06-15 11:07:00,75.3,59.0,29.81,SE,138,0.0,0.0,57,0.00,,OVC110,0.00,VWS V14.01,2013-06-15 15:07:00,
2013-06-15 11:12:00,75.1,59.3,29.81,SSE,150,0.0,0.0,58,0.00,,OVC110,0.00,VWS V14.01,2013-06-15 15:12:00,
2013-06-15 11:17:00,75.6,60.3,29.80,SE,145,0.0,0.0,59,0.00,,OVC110,0.00,VWS V14.01,2013-06-15 15:17:00,
2013-06-15 11:22:00,76.3,59.5,29.80,SE,131,0.0,0.0,56,0.00,,CLR,0.00,VWS V14.01,2013-06-15 15:22:00,
2013-06-15 11:32:00,76.8,59.4,29.79,SE,124,0.0,0.0,55,0.00,,CLR,0.00,VWS V14.01,2013-06-15 15:32:00,
2013-06-15 11:37:00,76.7,59.8,29.79,SE,131,0.0,0.0,56,0.00,,CLR,0.00,VWS V14.01,2013-06-15 15:37:00,
2013-06-15 11:42:00,76.5,60.2,29.79,SE,143,0.0,0.0,57,0.00,,CLR,0.00,VWS V14.01,2013-06-15 15:42:00,
2013-06-15 11:47:00,77.2,61.3,29.79,SE,130,0.0,0.0,58,0.00,,CLR,0.00,VWS V14.01,2013-06-15 15:47:00,
2013-06-15 11:57:00,76.7,59.8,29.79,SE,138,0.0,0.0,56,0.00,,CLR,0.00,VWS V14.01,2013-06-15 15:57:00,
2013-06-15 12:02:00,76.3,60.0,29.80,SE,138,0.0,0.0,57,0.00,,CLR,0.00,VWS V14.01,2013-06-15 16:02:00,
2013-06-15 12:07:00,75.8,60.0,29.80,SSE,155,0.0,0.0,58,0.00,,CLR,0.00,VWS V14.01,2013-06-15 16:07:00,
2013-06-15 12:12:00,76.0,59.7,29.80,SSE,155,0.0,0.0,57,0.00,,CLR,0.00,VWS V14.01,2013-06-15 16:12:00,
2013-06-15 12:17:00,75.4,59.6,29.82,South,185,0.0,0.0,58,0.00,,CLR,0.00,VWS V14.01,2013-06-15 16:17:00,
2013-06-15 12:22:00,74.4,59.2,29.82,South,189,0.0,0.0,59,0.00,,CLR,0.00,VWS V14.01,2013-06-15 16:22:00,
2013-06-15 12:27:00,74.2,59.4,29.82,South,189,0.0,0.0,60,0.00,,CLR,0.00,VWS V14.01,2013-06-15 16:27:00,
2013-06-15 12:32:00,74.0,60.2,29.83,South,189,0.0,0.0,62,0.00,,CLR,0.00,VWS V14.01,2013-06-15 16:32:00,
2013-06-15 12:37:00,73.5,61.0,29.83,South,189,0.0,0.0,65,0.00,,CLR,0.00,VWS V14.01,2013-06-15 16:37:00,
2013-06-15 12:42:00,73.2,62.0,29.83,South,191,0.0,0.0,68,0.01,,CLR,0.01,VWS V14.01,2013-06-15 16:42:00,
2013-06-15 12:47:00,72.3,62.0,29.83,South,191,0.0,0.0,70,0.01,,CLR,0.01,VWS V14.01,2013-06-15 16:47:00,
2013-06-15 12:52:00,72.1,62.6,29.83,South,191,0.0,0.0,72,0.01,,CLR,0.01,VWS V14.01,2013-06-15 16:52:00,
2013-06-15 12:57:00,72.0,62.5,29.83,SSW,192,0.0,0.0,72,0.01,,CLR,0.01,VWS V14.01,2013-06-15 16:57:00,
2013-06-15 13:07:00,71.8,63.1,29.84,SSW,192,0.0,0.0,74,0.01,,CLR,0.01,VWS V14.01,2013-06-15 17:07:00,
2013-06-15 13:12:00,71.6,63.3,29.84,SSW,192,0.0,0.0,75,0.01,,CLR,0.01,VWS V14.01,2013-06-15 17:12:00,
2013-06-15 13:17:00,71.8,63.8,29.85,SSW,192,0.0,0.0,76,0.01,,CLR,0.01,VWS V14.01,2013-06-15 17:17:00,
2013-06-15 13:27:00,71.6,63.6,29.85,SSW,192,0.0,0.0,76,0.01,,BKN110,0.01,VWS V14.01,2013-06-15 17:27:00,
2013-06-15 13:32:00,71.5,63.2,29.85,SSW,192,0.0,0.0,75,0.01,,BKN110,0.01,VWS V14.01,2013-06-15 17:32:00,
2013-06-15 13:42:00,71.6,63.6,29.85,SSW,192,0.0,0.0,76,0.01,,BKN110,0.01,VWS V14.01,2013-06-15 17:42:00,
2013-06-15 13:47:00,71.8,63.8,29.85,SSW,192,0.0,0.0,76,0.01,,BKN110,0.02,VWS V14.01,2013-06-15 17:47:00,
2013-06-15 13:52:00,71.3,63.7,29.85,SW,223,0.0,0.0,77,0.01,,BKN110,0.02,VWS V14.01,2013-06-15 17:52:00,
2013-06-15 14:02:00,70.3,64.2,29.86,SW,227,0.0,0.0,81,0.03,,BKN110,0.04,VWS V14.01,2013-06-15 18:02:00,
2013-06-15 14:07:00,69.8,64.1,29.86,SW,230,0.0,0.0,82,0.03,,BKN110,0.04,VWS V14.01,2013-06-15 18:07:00,
2013-06-15 14:12:00,69.4,64.4,29.86,SW,232,0.0,0.0,84,0.04,,BKN110,0.05,VWS V14.01,2013-06-15 18:12:00,
2013-06-15 14:17:00,68.8,63.8,29.85,WSW,240,0.0,0.0,84,0.04,,BKN110,0.05,VWS V14.01,2013-06-15 18:17:00,
2013-06-15 14:22:00,68.9,64.2,29.85,WSW,240,0.0,0.0,85,0.04,,-RA,0.05,VWS V14.01,2013-06-15 18:22:00,
2013-06-15 14:27:00,68.9,64.2,29.85,WSW,240,0.0,0.0,85,0.04,,-RA,0.05,VWS V14.01,2013-06-15 18:27:00,
2013-06-15 14:32:00,68.9,64.2,29.85,WSW,240,0.0,0.0,85,0.04,,-RA,0.05,VWS V14.01,2013-06-15 18:32:00,
2013-06-15 14:37:00,69.3,64.6,29.85,WSW,240,0.0,0.0,85,0.04,,-RA,0.05,VWS V14.01,2013-06-15 18:37:00,
2013-06-15 14:47:00,69.8,64.4,29.85,WSW,240,0.0,0.0,83,0.04,,-RA,0.05,VWS V14.01,2013-06-15 18:47:00,
2013-06-15 14:52:00,69.9,64.5,29.85,WSW,240,0.0,0.0,83,0.03,,-RA,0.05,VWS V14.01,2013-06-15 18:52:00,
2013-06-15 15:02:00,70.1,64.4,29.85,WSW,240,0.0,0.0,82,0.02,,-RA,0.05,VWS V14.01,2013-06-15 19:02:00,
2013-06-15 15:07:00,70.1,64.0,29.85,WSW,240,0.0,0.0,81,0.01,,-RA,0.05,VWS V14.01,2013-06-15 19:07:00,
2013-06-15 15:17:00,70.4,63.9,29.85,WSW,240,0.0,0.0,80,0.00,,-RA,0.05,VWS V14.01,2013-06-15 19:17:00,
2013-06-15 15:22:00,70.4,63.6,29.85,WSW,240,0.0,0.0,79,0.00,,-RA,0.05,VWS V14.01,2013-06-15 19:22:00,
2013-06-15 15:32:00,70.3,64.2,29.84,WSW,240,0.0,0.0,81,0.00,,-RA,0.05,VWS V14.01,2013-06-15 19:32:00,
2013-06-15 15:42:00,69.9,63.5,29.84,WSW,240,0.0,0.0,80,0.00,,-RA,0.05,VWS V14.01,2013-06-15 19:42:00,
2013-06-15 15:47:00,69.9,63.5,29.84,WSW,240,0.0,0.0,80,0.00,,-RA,0.05,VWS V14.01,2013-06-15 19:47:00,
2013-06-15 15:52:00,70.1,63.3,29.84,WSW,240,0.0,0.0,79,0.00,,-RA,0.05,VWS V14.01,2013-06-15 19:52:00,
2013-06-15 15:57:00,70.6,64.1,29.84,WSW,240,0.0,0.0,80,0.00,,-RA,0.05,VWS V14.01,2013-06-15 19:57:00,
2013-06-15 16:02:00,70.4,63.9,29.83,WSW,240,0.0,0.0,80,0.00,,-RA,0.05,VWS V14.01,2013-06-15 20:02:00,
2013-06-15 16:12:00,69.9,63.5,29.83,WSW,240,0.0,0.0,80,0.00,,-RA,0.05,VWS V14.01,2013-06-15 20:12:00,
2013-06-15 16:22:00,69.8,63.7,29.83,WSW,240,0.0,0.0,81,0.00,,-RA,0.05,VWS V14.01,2013-06-15 20:22:00,
2013-06-15 16:32:00,69.4,63.3,29.83,East,86,0.0,0.0,81,0.00,,-RA,0.05,VWS V14.01,2013-06-15 20:32:00,
2013-06-15 16:37:00,69.6,63.5,29.83,East,86,0.0,0.0,81,0.00,,-RA,0.05,VWS V14.01,2013-06-15 20:37:00,
2013-06-15 16:42:00,69.8,63.7,29.83,East,86,0.0,0.0,81,0.00,,-RA,0.05,VWS V14.01,2013-06-15 20:42:00,
2013-06-15 16:47:00,69.8,63.7,29.83,East,86,0.0,0.0,81,0.00,,-RA,0.05,VWS V14.01,2013-06-15 20:47:00,
2013-06-15 16:52:00,69.9,63.8,29.83,East,86,0.0,0.0,81,0.01,,-RA,0.06,VWS V14.01,2013-06-15 20:52:00,
2013-06-15 16:57:00,70.3,64.2,29.83,East,86,0.0,0.0,81,0.01,,-RA,0.06,VWS V14.01,2013-06-15 20:57:00,
2013-06-15 17:02:00,70.6,64.8,29.83,East,85,0.0,0.0,82,0.01,,-RA,0.06,VWS V14.01,2013-06-15 21:02:00,
2013-06-15 17:12:00,69.9,64.5,29.83,East,83,0.0,0.0,83,0.01,,-RA,0.06,VWS V14.01,2013-06-15 21:12:00,
2013-06-15 17:17:00,69.6,63.9,29.82,East,88,0.0,0.0,82,0.01,,-RA,0.06,VWS V14.01,2013-06-15 21:17:00,
2013-06-15 17:22:00,69.3,63.9,29.82,East,86,0.0,0.0,83,0.01,,OVC048,0.06,VWS V14.01,2013-06-15 21:22:00,
2013-06-15 17:27:00,69.1,64.1,29.82,East,86,0.0,0.0,84,0.01,,OVC048,0.06,VWS V14.01,2013-06-15 21:27:00,
2013-06-15 17:32:00,68.8,64.1,29.82,East,82,0.0,0.0,85,0.01,,OVC048,0.06,VWS V14.01,2013-06-15 21:32:00,
2013-06-15 17:37:00,68.6,64.2,29.82,East,79,0.0,0.0,86,0.01,,OVC048,0.06,VWS V14.01,2013-06-15 21:37:00,
2013-06-15 17:42:00,68.3,64.0,29.82,ENE,68,0.0,0.0,86,0.02,,OVC048,0.07,VWS V14.01,2013-06-15 21:42:00,
2013-06-15 17:47:00,68.1,64.1,29.81,ENE,71,0.0,0.0,87,0.02,,OVC048,0.07,VWS V14.01,2013-06-15 21:47:00,
2013-06-15 17:52:00,68.1,64.1,29.81,ENE,72,0.0,0.0,87,0.02,,OVC048,0.07,VWS V14.01,2013-06-15 21:52:00,
2013-06-15 17:57:00,67.9,64.2,29.81,ENE,76,0.0,0.0,88,0.01,,OVC048,0.07,VWS V14.01,2013-06-15 21:57:00,
2013-06-15 18:02:00,68.1,64.4,29.80,ENE,75,0.0,0.0,88,0.01,,OVC048,0.07,VWS V14.01,2013-06-15 22:02:00,
2013-06-15 18:12:00,68.3,64.6,29.80,ENE,76,0.0,0.0,88,0.01,,OVC048,0.07,VWS V14.01,2013-06-15 22:12:00,
2013-06-15 18:17:00,68.4,64.7,29.78,East,92,0.0,0.0,88,0.01,,OVC048,0.07,VWS V14.01,2013-06-15 22:17:00,
2013-06-15 18:27:00,68.6,64.9,29.78,East,88,0.0,0.0,88,0.01,,-RA,0.07,VWS V14.01,2013-06-15 22:27:00,
2013-06-15 18:32:00,68.8,65.1,29.77,East,90,0.0,0.0,88,0.01,,-RA,0.07,VWS V14.01,2013-06-15 22:32:00,
2013-06-15 18:37:00,69.3,65.6,29.77,East,90,0.0,0.0,88,0.01,,-RA,0.07,VWS V14.01,2013-06-15 22:37:00,
2013-06-15 18:47:00,71.1,66.4,29.77,East,97,0.0,0.0,85,0.00,,-RA,0.07,VWS V14.01,2013-06-15 22:47:00,
2013-06-15 18:52:00,71.6,65.5,29.77,East,96,0.0,0.0,81,0.00,,-RA,0.07,VWS V14.01,2013-06-15 22:52:00,
2013-06-15 18:57:00,72.3,65.1,29.77,East,100,0.0,0.0,78,0.00,,-RA,0.07,VWS V14.01,2013-06-15 22:57:00,
2013-06-15 19:02:00,72.3,64.3,29.75,ESE,116,0.0,0.0,76,0.00,,-RA,0.07,VWS V14.01,2013-06-15 23:02:00,
2013-06-15 19:07:00,72.3,63.9,29.75,ESE,112,0.0,0.0,75,0.00,,-RA,0.07,VWS V14.01,2013-06-15 23:07:00,
2013-06-15 19:12:00,72.1,63.8,29.75,ESE,119,0.0,0.0,75,0.00,,-RA,0.07,VWS V14.01,2013-06-15 23:12:00,
2013-06-15 19:17:00,72.1,63.4,29.74,ESE,109,0.0,0.0,74,0.00,,-RA,0.07,VWS V14.01,2013-06-15 23:17:00,
2013-06-15 19:22:00,72.3,63.6,29.74,ESE,109,0.0,0.0,74,0.00,,BKN060,0.07,VWS V14.01,2013-06-15 23:22:00,
2013-06-15 19:27:00,72.1,63.4,29.74,SE,124,0.0,0.0,74,0.00,,BKN060,0.07,VWS V14.01,2013-06-15 23:27:00,
2013-06-15 19:37:00,72.0,62.9,29.73,SE,131,0.0,0.0,73,0.00,,BKN060,0.07,VWS V14.01,2013-06-15 23:37:00,
2013-06-15 19:42:00,72.0,63.3,29.73,ESE,113,0.0,0.0,74,0.00,,BKN060,0.07,VWS V14.01,2013-06-15 23:42:00,
2013-06-15 19:52:00,72.0,63.7,29.73,ESE,113,0.0,0.0,75,0.00,,BKN060,0.07,VWS V14.01,2013-06-15 23:52:00,
2013-06-15 19:57:00,72.1,63.4,29.73,ESE,123,0.0,0.0,74,0.00,,BKN060,0.07,VWS V14.01,2013-06-15 23:57:00,
2013-06-15 20:02:00,72.0,63.3,29.74,SE,134,0.0,0.0,74,0.00,,BKN060,0.07,VWS V14.01,2013-06-16 00:02:00,
2013-06-15 20:12:00,71.8,63.5,29.74,ESE,113,0.0,0.0,75,0.00,,BKN060,0.07,VWS V14.01,2013-06-16 00:12:00,
2013-06-15 20:22:00,71.3,63.3,29.73,ESE,121,0.0,0.0,76,0.00,,CLR,0.07,VWS V14.01,2013-06-16 00:22:00,
2013-06-15 20:32:00,71.1,63.5,29.74,ESE,121,0.0,0.0,77,0.00,,CLR,0.07,VWS V14.01,2013-06-16 00:32:00,
2013-06-15 20:37:00,71.1,63.5,29.74,ESE,121,0.0,0.0,77,0.00,,CLR,0.07,VWS V14.01,2013-06-16 00:37:00,
2013-06-15 20:47:00,70.8,63.6,29.73,SE,124,0.0,0.0,78,0.00,,CLR,0.07,VWS V14.01,2013-06-16 00:47:00,
2013-06-15 20:52:00,70.4,63.6,29.73,SE,137,0.0,0.0,79,0.00,,CLR,0.07,VWS V14.01,2013-06-16 00:52:00,
2013-06-15 20:57:00,70.3,63.5,29.73,SE,137,0.0,0.0,79,0.00,,CLR,0.07,VWS V14.01,2013-06-16 00:57:00,
2013-06-15 21:02:00,70.1,63.7,29.73,SE,137,0.0,0.0,80,0.00,,CLR,0.07,VWS V14.01,2013-06-16 01:02:00,
2013-06-15 21:07:00,69.9,63.5,29.73,SE,137,0.0,0.0,80,0.00,,CLR,0.07,VWS V14.01,2013-06-16 01:07:00,
2013-06-15 21:12:00,69.9,63.5,29.73,SE,137,0.0,0.0,80,0.00,,CLR,0.07,VWS V14.01,2013-06-16 01:12:00,
2013-06-15 21:17:00,69.8,63.7,29.74,SE,137,0.0,0.0,81,0.00,,CLR,0.07,VWS V14.01,2013-06-16 01:17:00,
2013-06-15 21:22:00,69.6,63.5,29.74,SE,141,0.0,0.0,81,0.00,,CLR,0.07,VWS V14.01,2013-06-16 01:22:00,
2013-06-15 21:27:00,69.4,63.0,29.74,SE,141,0.0,0.0,80,0.00,,CLR,0.07,VWS V14.01,2013-06-16 01:27:00,
2013-06-15 21:32:00,69.3,62.9,29.75,SE,141,0.0,0.0,80,0.00,,CLR,0.07,VWS V14.01,2013-06-16 01:32:00,
2013-06-15 21:37:00,69.1,62.7,29.75,SSE,155,0.0,0.0,80,0.00,,CLR,0.07,VWS V14.01,2013-06-16 01:37:00,
2013-06-15 21:42:00,69.1,62.3,29.75,SSE,157,0.0,0.0,79,0.00,,CLR,0.07,VWS V14.01,2013-06-16 01:42:00,
2013-06-15 21:52:00,69.1,62.0,29.75,SSE,154,0.0,0.0,78,0.00,,CLR,0.07,VWS V14.01,2013-06-16 01:52:00,
2013-06-15 21:57:00,69.1,62.0,29.75,SSE,154,0.0,0.0,78,0.00,,CLR,0.07,VWS V14.01,2013-06-16 01:57:00,
2013-06-15 22:02:00,69.1,62.0,29.75,SE,145,0.0,0.0,78,0.00,,CLR,0.07,VWS V14.01,2013-06-16 02:02:00,
2013-06-15 22:12:00,68.9,62.1,29.75,SSE,152,0.0,0.0,79,0.00,,CLR,0.07,VWS V14.01,2013-06-16 02:12:00,
2013-06-15 22:17:00,68.9,62.5,29.75,SE,131,0.0,0.0,80,0.00,,CLR,0.07,VWS V14.01,2013-06-16 02:17:00,
2013-06-15 22:22:00,68.9,62.5,29.75,SE,143,0.0,0.0,80,0.00,,CLR,0.07,VWS V14.01,2013-06-16 02:22:00,
2013-06-15 22:27:00,68.8,62.7,29.75,SE,145,0.0,0.0,81,0.00,,CLR,0.07,VWS V14.01,2013-06-16 02:27:00,
2013-06-15 22:32:00,68.8,62.7,29.75,SSE,150,0.0,0.0,81,0.00,,CLR,0.07,VWS V14.01,2013-06-16 02:32:00,
2013-06-15 22:37:00,68.8,63.1,29.75,SE,145,0.0,0.0,82,0.00,,CLR,0.07,VWS V14.01,2013-06-16 02:37:00,
2013-06-15 22:42:00,68.8,63.1,29.75,SE,145,0.0,0.0,82,0.00,,CLR,0.07,VWS V14.01,2013-06-16 02:42:00,
2013-06-15 22:47:00,68.6,62.9,29.75,SE,145,0.0,0.0,82,0.00,,CLR,0.07,VWS V14.01,2013-06-16 02:47:00,
2013-06-15 22:52:00,68.6,62.9,29.75,SE,141,0.0,0.0,82,0.00,,CLR,0.07,VWS V14.01,2013-06-16 02:52:00,
2013-06-15 22:57:00,68.6,63.2,29.75,SE,141,0.0,0.0,83,0.00,,CLR,0.07,VWS V14.01,2013-06-16 02:57:00,
2013-06-15 23:02:00,68.6,63.2,29.75,SE,141,0.0,0.0,83,0.00,,CLR,0.07,VWS V14.01,2013-06-16 03:02:00,
2013-06-15 23:07:00,68.6,63.2,29.75,SE,141,0.0,0.0,83,0.00,,CLR,0.07,VWS V14.01,2013-06-16 03:07:00,
2013-06-15 23:17:00,68.4,63.0,29.74,SE,141,0.0,0.0,83,0.00,,CLR,0.07,VWS V14.01,2013-06-16 03:17:00,
2013-06-15 23:27:00,68.4,63.0,29.74,SE,141,0.0,0.0,83,0.00,,CLR,0.07,VWS V14.01,2013-06-16 03:27:00,
2013-06-15 23:32:00,68.4,63.0,29.74,SE,141,0.0,0.0,83,0.00,,CLR,0.07,VWS V14.01,2013-06-16 03:32:00,
2013-06-15 23:42:00,68.3,62.9,29.74,SSE,147,0.0,0.0,83,0.00,,CLR,0.07,VWS V14.01,2013-06-16 03:42:00,
2013-06-15 23:47:00,68.3,62.9,29.73,SSE,147,0.0,0.0,83,0.00,,CLR,0.07,VWS V14.01,2013-06-16 03:47:00,
2013-06-15 23:57:00,68.3,62.9,29.73,SSE,147,0.0,0.0,83,0.00,,CLR,0.07,VWS V14.01,2013-06-16 03:57:00,